Time;durP1;ratioP1;P1;durP2;ratioP2;P2;SDS_P1;SDS_P2;PMS_P1;PMS_P2;Temp;Humidity;BMP_temperature;BMP_pressure;BME280_temperature;BME280_humidity;BME280_pressure;Samples;Min_cycle;Max_cycle;Signal;HPM_P1;HPM_P2
2022/12/26 00:01:41;;;;;;;75.47;29.93;;;;;;;;;;5036878;28;20242;-88
2022/12/26 00:04:07;;;;;;;94.33;31.67;;;;;;;;;;5052271;28;20177;-87
2022/12/26 00:06:34;;;;;;;103.87;32.43;;;;;;;;;;5035566;28;20173;-87
2022/12/26 00:09:01;;;;;;;105.37;33.30;;;;;;;;;;5035496;28;20176;-88
2022/12/26 00:11:27;;;;;;;124.90;33.63;;;;;;;;;;5035561;28;20177;-88
2022/12/26 00:13:58;;;;;;;102.07;32.90;;;;;;;;;;5034264;28;20181;-88
2022/12/26 00:16:25;;;;;;;94.77;32.47;;;;;;;;;;5036588;28;20176;-85
2022/12/26 00:18:51;;;;;;;96.60;33.73;;;;;;;;;;5027119;28;20219;-85
2022/12/26 00:21:18;;;;;;;141.37;36.37;;;;;;;;;;5045562;28;20314;-85
2022/12/26 00:23:44;;;;;;;101.20;34.07;;;;;;;;;;5046069;28;20173;-85
2022/12/26 00:26:15;;;;;;;84.93;32.00;;;;;;;;;;5043908;28;20175;-86
2022/12/26 00:28:41;;;;;;;103.37;32.57;;;;;;;;;;5045315;28;20183;-85
2022/12/26 00:31:08;;;;;;;92.17;32.67;;;;;;;;;;5027686;28;20219;-85
2022/12/26 00:33:34;;;;;;;106.60;34.90;;;;;;;;;;5045604;28;20179;-80
2022/12/26 00:36:01;;;;;;;106.93;34.23;;;;;;;;;;5042577;28;20172;-80
2022/12/26 00:38:27;;;;;;;105.70;34.33;;;;;;;;;;5047866;28;20235;-80
2022/12/26 00:40:53;;;;;;;119.13;35.13;;;;;;;;;;5050751;28;20178;-79
2022/12/26 00:43:19;;;;;;;120.23;34.50;;;;;;;;;;5034935;28;20177;-80
2022/12/26 00:45:47;;;;;;;111.03;34.27;;;;;;;;;;5038750;28;20195;-80
2022/12/26 00:48:13;;;;;;;111.03;34.30;;;;;;;;;;5074641;28;20179;-80
2022/12/26 00:50:39;;;;;;;103.07;34.77;;;;;;;;;;5041512;28;20215;-80
2022/12/26 00:53:05;;;;;;;121.50;36.73;;;;;;;;;;5074555;28;20187;-80
2022/12/26 00:55:31;;;;;;;104.63;34.83;;;;;;;;;;5057992;28;20237;-80
2022/12/26 00:57:57;;;;;;;105.03;34.77;;;;;;;;;;5074456;28;20256;-80
2022/12/26 01:00:23;;;;;;;99.80;35.57;;;;;;;;;;5074463;28;20183;-80
2022/12/26 01:02:50;;;;;;;91.07;33.77;;;;;;;;;;5041285;28;20182;-80
2022/12/26 01:05:16;;;;;;;96.40;35.07;;;;;;;;;;5041675;28;20254;-80
2022/12/26 01:07:42;;;;;;;98.00;34.93;;;;;;;;;;5074262;28;20225;-80
2022/12/26 01:10:10;;;;;;;84.10;33.67;;;;;;;;;;5074604;28;20184;-80
2022/12/26 01:12:36;;;;;;;95.97;34.60;;;;;;;;;;5074077;28;20179;-79
2022/12/26 01:15:02;;;;;;;89.93;34.43;;;;;;;;;;5041075;28;20241;-80
2022/12/26 01:17:29;;;;;;;96.43;36.07;;;;;;;;;;5040761;28;20214;-81
2022/12/26 01:19:55;;;;;;;98.73;36.53;;;;;;;;;;5074101;28;20179;-80
2022/12/26 01:22:22;;;;;;;96.13;36.10;;;;;;;;;;5074062;28;20180;-88
2022/12/26 01:24:48;;;;;;;99.30;36.13;;;;;;;;;;5040712;28;20179;-89
2022/12/26 01:27:14;;;;;;;90.60;35.80;;;;;;;;;;5073834;28;20247;-88
2022/12/26 01:29:40;;;;;;;90.13;34.87;;;;;;;;;;5073947;28;20179;-89
2022/12/26 01:32:06;;;;;;;91.57;36.10;;;;;;;;;;5040974;28;20190;-89
2022/12/26 01:34:32;;;;;;;101.73;36.40;;;;;;;;;;5075243;28;20320;-88
2022/12/26 01:36:58;;;;;;;84.43;34.23;;;;;;;;;;5040858;28;20214;-89
2022/12/26 01:39:24;;;;;;;75.00;32.70;;;;;;;;;;5041010;28;20190;-89
2022/12/26 01:41:50;;;;;;;68.10;31.63;;;;;;;;;;5075332;28;20187;-87
2022/12/26 01:44:35;;;;;;;73.70;31.67;;;;;;;;;;5077544;28;20190;-87
2022/12/26 01:47:01;;;;;;;64.73;29.90;;;;;;;;;;5093487;28;20214;-89
2022/12/26 01:49:32;;;;;;;61.97;30.57;;;;;;;;;;5071328;28;20254;-89
2022/12/26 01:52:01;;;;;;;61.00;29.83;;;;;;;;;;5093721;28;20265;-89
2022/12/26 01:54:30;;;;;;;63.00;30.13;;;;;;;;;;5093666;28;20178;-88
2022/12/26 01:56:57;;;;;;;70.77;31.00;;;;;;;;;;5094627;28;20292;-82
2022/12/26 01:59:28;;;;;;;64.33;29.80;;;;;;;;;;5077335;28;20178;-81
2022/12/26 02:01:55;;;;;;;56.80;28.40;;;;;;;;;;5114139;22;20233;-85
2022/12/26 02:07:08;;;;;;;58.50;29.97;;;;;;;;;;5115343;28;20189;-84
2022/12/26 02:09:35;;;;;;;54.67;28.90;;;;;;;;;;5113996;28;20250;-85
2022/12/26 02:12:04;;;;;;;53.80;28.83;;;;;;;;;;5131010;27;20169;-84
2022/12/26 02:14:30;;;;;;;57.17;30.07;;;;;;;;;;5131139;27;20181;-85
2022/12/26 02:16:57;;;;;;;54.03;29.17;;;;;;;;;;5131086;27;20217;-84
2022/12/26 02:19:29;;;;;;;58.03;30.13;;;;;;;;;;5131240;27;20197;-85
2022/12/26 02:21:58;;;;;;;57.03;30.20;;;;;;;;;;5130926;27;20220;-85
2022/12/26 02:24:43;;;;;;;52.40;29.50;;;;;;;;;;5130865;27;20178;-85
2022/12/26 02:27:15;;;;;;;58.00;31.70;;;;;;;;;;5114455;28;20173;-85
2022/12/26 02:29:41;;;;;;;58.17;31.43;;;;;;;;;;5120925;27;20208;-88
2022/12/26 02:32:19;;;;;;;54.47;30.53;;;;;;;;;;5110508;28;20187;-88
2022/12/26 02:34:48;;;;;;;54.57;31.17;;;;;;;;;;5113565;28;20188;-89
2022/12/26 02:37:23;;;;;;;52.80;30.80;;;;;;;;;;5115367;28;20233;-88
2022/12/26 02:39:55;;;;;;;58.13;30.57;;;;;;;;;;5118251;28;20229;-89
2022/12/26 02:42:30;;;;;;;64.83;33.93;;;;;;;;;;5114784;27;20174;-88
2022/12/26 02:48:07;;;;;;;74.67;35.43;;;;;;;;;;5118620;28;20193;-80
2022/12/26 03:13:11;;;;;;;54.70;32.93;;;;;;;;;;5117837;28;20212;-80
2022/12/26 03:18:46;;;;;;;63.13;33.87;;;;;;;;;;5117518;28;20261;-80
2022/12/26 03:21:14;;;;;;;64.93;34.17;;;;;;;;;;5133637;27;20197;-80
2022/12/26 03:23:42;;;;;;;52.67;32.70;;;;;;;;;;5133029;27;20261;-80
2022/12/26 03:26:41;;;;;;;61.17;33.27;;;;;;;;;;5117446;28;20260;-82
2022/12/26 03:31:57;;;;;;;52.13;31.43;;;;;;;;;;5115205;28;20201;-81
2022/12/26 03:34:23;;;;;;;52.70;32.17;;;;;;;;;;5116029;28;20220;-81
2022/12/26 03:37:06;;;;;;;54.67;31.10;;;;;;;;;;5128776;27;20202;-80
2022/12/26 04:19:49;;;;;;;51.63;36.10;;;;;;;;;;5116822;28;20235;-82
2022/12/26 04:44:54;;;;;;;48.67;36.43;;;;;;;;;;5115950;28;20239;-81
2022/12/26 04:47:20;;;;;;;42.77;34.73;;;;;;;;;;5115011;28;20182;-82
2022/12/26 04:55:16;;;;;;;39.97;33.30;;;;;;;;;;5105709;28;20191;-82
2022/12/26 04:57:42;;;;;;;38.83;32.00;;;;;;;;;;5088219;28;20206;-81
2022/12/26 05:00:08;;;;;;;33.67;29.57;;;;;;;;;;5102505;28;20185;-80
2022/12/26 05:10:48;;;;;;;29.67;26.43;;;;;;;;;;5107148;28;20185;-80
2022/12/26 05:13:14;;;;;;;28.80;25.70;;;;;;;;;;5106973;28;20261;-80
2022/12/26 05:29:25;;;;;;;25.50;22.83;;;;;;;;;;5105151;28;20189;-85
2022/12/26 05:31:51;;;;;;;26.43;23.70;;;;;;;;;;5086751;28;20166;-85
2022/12/26 05:34:19;;;;;;;24.77;22.17;;;;;;;;;;5087628;28;20171;-89
2022/12/26 05:36:51;;;;;;;24.13;21.73;;;;;;;;;;5105225;28;20163;-89
2022/12/26 05:39:17;;;;;;;23.03;20.70;;;;;;;;;;5104733;28;20167;-90
2022/12/26 05:41:43;;;;;;;22.20;19.90;;;;;;;;;;5085607;28;20174;-88
2022/12/26 05:44:09;;;;;;;22.63;20.33;;;;;;;;;;5089489;28;20202;-88
2022/12/26 05:46:37;;;;;;;22.03;19.93;;;;;;;;;;5103632;28;20222;-89
2022/12/26 05:49:03;;;;;;;21.77;19.47;;;;;;;;;;5104371;28;20162;-81
2022/12/26 05:51:29;;;;;;;19.13;17.27;;;;;;;;;;5103893;28;20175;-82
2022/12/26 05:53:57;;;;;;;18.10;16.30;;;;;;;;;;5084544;28;20178;-81
2022/12/26 05:56:23;;;;;;;17.30;15.67;;;;;;;;;;5103883;28;20166;-81
2022/12/26 05:58:56;;;;;;;17.97;14.57;;;;;;;;;;5102076;28;20213;-81
2022/12/26 06:01:23;;;;;;;15.10;13.07;;;;;;;;;;5101752;28;20214;-81
2022/12/26 06:03:50;;;;;;;13.33;11.67;;;;;;;;;;5102434;28;20175;-81
2022/12/26 06:06:16;;;;;;;12.80;10.83;;;;;;;;;;5093405;28;20200;-87
2022/12/26 06:08:42;;;;;;;11.90;10.70;;;;;;;;;;5093531;28;20250;-88
2022/12/26 06:11:10;;;;;;;10.90;9.80;;;;;;;;;;5076066;28;20183;-89
2022/12/26 06:13:37;;;;;;;14.07;10.27;;;;;;;;;;5093929;28;20182;-89
2022/12/26 06:16:04;;;;;;;13.80;9.83;;;;;;;;;;5093695;28;20174;-88
2022/12/26 06:18:30;;;;;;;13.37;10.23;;;;;;;;;;5093496;28;20296;-87
2022/12/26 06:20:56;;;;;;;19.17;11.77;;;;;;;;;;5093674;28;20228;-88
2022/12/26 06:23:22;;;;;;;22.63;12.00;;;;;;;;;;5093649;28;20273;-80
2022/12/26 06:25:55;;;;;;;17.50;11.73;;;;;;;;;;5094634;28;20175;-80
2022/12/26 06:28:22;;;;;;;15.70;10.80;;;;;;;;;;5093415;28;20186;-80
2022/12/26 06:30:48;;;;;;;17.47;10.33;;;;;;;;;;5093125;28;20420;-80
2022/12/26 06:33:14;;;;;;;19.83;11.00;;;;;;;;;;5093465;28;20185;-80
2022/12/26 06:35:40;;;;;;;18.13;10.60;;;;;;;;;;5076571;28;20187;-80
2022/12/26 06:38:06;;;;;;;21.10;10.43;;;;;;;;;;5093771;28;20284;-80
2022/12/26 06:40:32;;;;;;;16.70;10.50;;;;;;;;;;5076513;28;20190;-85
2022/12/26 06:42:58;;;;;;;16.47;9.73;;;;;;;;;;5093447;28;20190;-85
2022/12/26 06:45:24;;;;;;;19.77;10.80;;;;;;;;;;5076677;28;20232;-85
2022/12/26 06:47:50;;;;;;;17.40;10.87;;;;;;;;;;5077029;28;20182;-85
2022/12/26 06:50:16;;;;;;;23.20;11.73;;;;;;;;;;5076235;28;20187;-85
2022/12/26 06:52:42;;;;;;;23.37;11.70;;;;;;;;;;5093392;28;20201;-85
2022/12/26 06:55:08;;;;;;;25.33;12.00;;;;;;;;;;5096540;28;20186;-82
2022/12/26 06:57:34;;;;;;;18.07;11.30;;;;;;;;;;5113649;28;20296;-82
2022/12/26 07:00:00;;;;;;;18.27;11.03;;;;;;;;;;5113751;28;20251;-81
2022/12/26 07:02:26;;;;;;;21.93;12.17;;;;;;;;;;5112950;28;20225;-81
2022/12/26 07:04:52;;;;;;;19.80;11.87;;;;;;;;;;5096430;28;20188;-81
2022/12/26 07:07:18;;;;;;;18.77;12.53;;;;;;;;;;5096795;28;20198;-81
2022/12/26 07:09:44;;;;;;;22.27;11.90;;;;;;;;;;5113830;28;20186;-81
2022/12/26 07:12:10;;;;;;;18.60;11.57;;;;;;;;;;5096304;28;20190;-79
2022/12/26 07:14:36;;;;;;;14.13;11.57;;;;;;;;;;5113210;28;20186;-80
2022/12/26 07:17:02;;;;;;;14.67;11.77;;;;;;;;;;5096655;28;20353;-80
2022/12/26 07:19:28;;;;;;;14.53;11.63;;;;;;;;;;5096408;28;20190;-80
2022/12/26 07:21:54;;;;;;;13.10;10.73;;;;;;;;;;5113450;28;20174;-80
2022/12/26 07:24:21;;;;;;;14.10;11.43;;;;;;;;;;5099304;28;20181;-80
2022/12/26 07:26:48;;;;;;;13.53;11.63;;;;;;;;;;5134362;27;20178;-80
2022/12/26 07:29:14;;;;;;;13.30;11.67;;;;;;;;;;5117258;28;20178;-88
2022/12/26 07:31:41;;;;;;;12.97;11.47;;;;;;;;;;5117270;28;20182;-89
2022/12/26 07:34:07;;;;;;;13.20;11.43;;;;;;;;;;5118118;28;20174;-88
2022/12/26 07:36:33;;;;;;;13.60;11.37;;;;;;;;;;5134407;27;20181;-89
2022/12/26 07:38:59;;;;;;;13.10;11.77;;;;;;;;;;5134397;27;20236;-89
2022/12/26 07:44:10;;;;;;;15.07;11.53;;;;;;;;;;5107014;28;20224;-89
2022/12/26 07:46:36;;;;;;;14.50;10.63;;;;;;;;;;5088386;28;20194;-81
2022/12/26 07:49:03;;;;;;;14.23;11.33;;;;;;;;;;5091910;28;20182;-81
2022/12/26 07:51:29;;;;;;;12.13;10.83;;;;;;;;;;5108067;28;20197;-81
2022/12/26 07:53:55;;;;;;;13.17;10.57;;;;;;;;;;5104460;28;20179;-82
2022/12/26 07:56:21;;;;;;;13.83;10.47;;;;;;;;;;5116542;28;20209;-82
2022/12/26 07:58:50;;;;;;;14.40;10.33;;;;;;;;;;5108081;28;20285;-81
2022/12/26 08:01:16;;;;;;;11.27;9.93;;;;;;;;;;5096161;22;20271;-89
2022/12/26 08:03:42;;;;;;;11.40;9.60;;;;;;;;;;5085037;28;20168;-85
2022/12/26 08:06:09;;;;;;;10.33;8.97;;;;;;;;;;5069783;28;20203;-85
2022/12/26 08:08:36;;;;;;;10.80;9.00;;;;;;;;;;5071504;28;20225;-85
2022/12/26 08:11:03;;;;;;;10.10;9.10;;;;;;;;;;5059714;28;20266;-85
2022/12/26 08:13:29;;;;;;;10.53;8.93;;;;;;;;;;5089410;28;20171;-85
2022/12/26 08:15:56;;;;;;;10.40;8.63;;;;;;;;;;5045985;28;20218;-85
2022/12/26 08:18:22;;;;;;;9.00;7.70;;;;;;;;;;5070369;28;20200;-81
2022/12/26 08:20:48;;;;;;;9.50;7.80;;;;;;;;;;5056920;28;20179;-80
2022/12/26 08:23:14;;;;;;;9.07;7.23;;;;;;;;;;5086950;28;20183;-80
2022/12/26 08:25:40;;;;;;;9.80;6.97;;;;;;;;;;5065065;28;20190;-80
2022/12/26 08:28:06;;;;;;;11.70;6.80;;;;;;;;;;5055172;28;20183;-80
2022/12/26 08:30:32;;;;;;;9.33;6.60;;;;;;;;;;5072783;28;20211;-80
2022/12/26 08:32:58;;;;;;;7.57;5.97;;;;;;;;;;5084815;28;20184;-80
2022/12/26 08:35:24;;;;;;;8.07;6.13;;;;;;;;;;5073114;28;20210;-80
2022/12/26 08:37:50;;;;;;;6.10;5.00;;;;;;;;;;5084778;28;20294;-80
2022/12/26 08:40:16;;;;;;;6.73;5.30;;;;;;;;;;5061185;28;20207;-80
2022/12/26 08:42:42;;;;;;;10.10;5.67;;;;;;;;;;5089274;28;20263;-81
2022/12/26 08:45:09;;;;;;;8.47;5.70;;;;;;;;;;5060898;28;20218;-80
2022/12/26 08:47:35;;;;;;;6.60;5.63;;;;;;;;;;5091994;28;20183;-81
2022/12/26 08:50:01;;;;;;;8.87;5.50;;;;;;;;;;5091505;28;20183;-81
2022/12/26 08:52:27;;;;;;;8.93;5.37;;;;;;;;;;5092420;28;20183;-88
2022/12/26 08:54:53;;;;;;;7.70;5.13;;;;;;;;;;5094293;28;20187;-89
2022/12/26 08:57:19;;;;;;;6.70;4.87;;;;;;;;;;5075250;28;20215;-88
2022/12/26 08:59:45;;;;;;;5.87;4.47;;;;;;;;;;5074849;28;20179;-89
2022/12/26 09:02:11;;;;;;;5.73;3.77;;;;;;;;;;5074711;28;20262;-88
2022/12/26 09:04:37;;;;;;;7.30;3.80;;;;;;;;;;5091675;28;20192;-89
2022/12/26 09:07:03;;;;;;;4.73;3.47;;;;;;;;;;5112245;28;20181;-88
2022/12/26 09:09:30;;;;;;;6.87;3.37;;;;;;;;;;5111832;28;20181;-81
2022/12/26 09:11:56;;;;;;;4.97;3.37;;;;;;;;;;5111886;28;20185;-81
2022/12/26 09:14:22;;;;;;;8.03;3.30;;;;;;;;;;5111439;28;20201;-82
2022/12/26 09:16:48;;;;;;;4.63;3.20;;;;;;;;;;5107807;28;20170;-82
2022/12/26 09:19:17;;;;;;;5.53;2.97;;;;;;;;;;5081031;28;20178;-82
2022/12/26 09:21:44;;;;;;;6.23;3.20;;;;;;;;;;5081419;28;20176;-82
2022/12/26 09:24:11;;;;;;;7.70;3.50;;;;;;;;;;5080345;28;20190;-81
2022/12/26 09:26:38;;;;;;;9.20;3.80;;;;;;;;;;5073511;28;20179;-82
2022/12/26 09:29:04;;;;;;;8.47;3.53;;;;;;;;;;5070607;28;20179;-82
2022/12/26 09:31:32;;;;;;;6.07;3.27;;;;;;;;;;5054942;28;20266;-82
2022/12/26 09:33:58;;;;;;;5.03;3.17;;;;;;;;;;5071538;28;20184;-82
2022/12/26 09:36:29;;;;;;;5.63;2.93;;;;;;;;;;5070983;28;20180;-81
2022/12/26 09:38:56;;;;;;;6.67;3.23;;;;;;;;;;5070806;28;20207;-80
2022/12/26 09:41:41;;;;;;;6.90;3.40;;;;;;;;;;5084470;28;20186;-80
2022/12/26 09:44:22;;;;;;;9.03;3.40;;;;;;;;;;5085871;28;20183;-85
2022/12/26 09:47:07;;;;;;;7.40;3.93;;;;;;;;;;5054636;28;20179;-85
2022/12/26 09:49:38;;;;;;;10.60;3.80;;;;;;;;;;5053453;28;20172;-85
2022/12/26 09:52:12;;;;;;;10.87;4.50;;;;;;;;;;5054953;28;20178;-85
2022/12/26 09:54:40;;;;;;;11.40;4.13;;;;;;;;;;5053632;28;20180;-85
2022/12/26 09:57:09;;;;;;;9.40;3.63;;;;;;;;;;5053627;28;20203;-85
2022/12/26 09:59:41;;;;;;;10.43;3.90;;;;;;;;;;5053778;28;20178;-89
2022/12/26 10:02:15;;;;;;;11.40;4.67;;;;;;;;;;5053234;28;20228;-89
2022/12/26 10:04:41;;;;;;;9.00;3.70;;;;;;;;;;5054544;28;20245;-89
2022/12/26 10:07:33;;;;;;;11.50;4.00;;;;;;;;;;5056681;28;20219;-89
2022/12/26 10:10:13;;;;;;;9.83;4.00;;;;;;;;;;5041156;28;20187;-88
2022/12/26 10:13:03;;;;;;;9.50;4.57;;;;;;;;;;5090268;28;20182;-89
2022/12/26 10:15:48;;;;;;;12.53;4.93;;;;;;;;;;5090900;28;20179;-81
2022/12/26 10:18:23;;;;;;;8.47;4.03;;;;;;;;;;5073970;28;20210;-81
2022/12/26 10:21:08;;;;;;;5.57;2.80;;;;;;;;;;5073392;28;20179;-82
2022/12/26 10:23:34;;;;;;;3.73;2.80;;;;;;;;;;5073446;28;20171;-81
2022/12/26 10:26:12;;;;;;;6.57;3.23;;;;;;;;;;5072733;28;20164;-81
2022/12/26 10:28:54;;;;;;;9.00;3.73;;;;;;;;;;5090161;28;20181;-81
2022/12/26 10:31:20;;;;;;;5.63;3.00;;;;;;;;;;5089959;28;20183;-81
2022/12/26 10:33:53;;;;;;;9.10;3.13;;;;;;;;;;5082010;28;20184;-85
2022/12/26 10:36:27;;;;;;;10.60;3.37;;;;;;;;;;5090267;28;20190;-85
2022/12/26 10:38:55;;;;;;;9.03;3.40;;;;;;;;;;5073272;28;20214;-85
2022/12/26 10:41:25;;;;;;;7.47;3.20;;;;;;;;;;5073951;28;20175;-85
2022/12/26 10:43:52;;;;;;;8.87;3.40;;;;;;;;;;5080005;28;20183;-85
2022/12/26 10:46:41;;;;;;;6.63;3.20;;;;;;;;;;5062751;28;20182;-85
2022/12/26 10:49:09;;;;;;;9.30;3.17;;;;;;;;;;5074109;28;20182;-81
2022/12/26 10:51:37;;;;;;;8.93;3.27;;;;;;;;;;5089556;28;20257;-82
2022/12/26 10:54:03;;;;;;;10.47;3.50;;;;;;;;;;5092963;28;20179;-81
2022/12/26 10:56:30;;;;;;;11.20;3.13;;;;;;;;;;5109769;28;20175;-82
2022/12/26 10:59:01;;;;;;;8.50;3.23;;;;;;;;;;5112983;28;20290;-81
2022/12/26 11:01:31;;;;;;;11.43;3.23;;;;;;;;;;5090586;28;20224;-81
2022/12/26 11:03:58;;;;;;;11.03;3.07;;;;;;;;;;5077023;28;20175;-80
2022/12/26 11:06:27;;;;;;;17.23;3.63;;;;;;;;;;5076635;28;20178;-81
2022/12/26 11:08:53;;;;;;;16.57;3.30;;;;;;;;;;5095845;28;20178;-81
2022/12/26 11:11:23;;;;;;;15.13;3.30;;;;;;;;;;5057602;28;20180;-81
2022/12/26 11:13:58;;;;;;;13.83;3.00;;;;;;;;;;5056709;28;20206;-81
2022/12/26 11:16:26;;;;;;;11.47;2.97;;;;;;;;;;5058271;28;20199;-81
2022/12/26 11:18:52;;;;;;;16.33;2.90;;;;;;;;;;5074178;28;20298;-81
2022/12/26 11:21:18;;;;;;;18.50;3.10;;;;;;;;;;5072932;28;20184;-81
2022/12/26 11:23:48;;;;;;;9.70;2.30;;;;;;;;;;5078987;28;20181;-81
2022/12/26 11:26:31;;;;;;;9.37;2.40;;;;;;;;;;5078699;28;20273;-81
2022/12/26 11:29:13;;;;;;;14.20;2.70;;;;;;;;;;5072558;28;20171;-81
2022/12/26 11:31:58;;;;;;;10.90;3.80;;;;;;;;;;5069757;28;20199;-81
2022/12/26 11:34:35;;;;;;;13.93;4.70;;;;;;;;;;5072500;28;20226;-81
2022/12/26 11:37:02;;;;;;;11.17;2.30;;;;;;;;;;5086632;28;20183;-81
2022/12/26 11:39:31;;;;;;;7.27;2.57;;;;;;;;;;5056071;28;20229;-81
2022/12/26 11:41:57;;;;;;;11.67;3.10;;;;;;;;;;5055951;28;20210;-80
2022/12/26 11:44:32;;;;;;;9.57;3.00;;;;;;;;;;5072672;28;20184;-81
2022/12/26 11:47:15;;;;;;;17.13;2.63;;;;;;;;;;5057079;28;20172;-81
2022/12/26 11:49:46;;;;;;;10.60;2.70;;;;;;;;;;5064842;28;20214;-80
2022/12/26 11:52:31;;;;;;;10.47;2.70;;;;;;;;;;5063396;28;20182;-81
2022/12/26 11:54:57;;;;;;;9.13;2.50;;;;;;;;;;5092610;28;20190;-81
2022/12/26 11:57:30;;;;;;;12.80;2.30;;;;;;;;;;5092662;28;20207;-81
2022/12/26 12:00:14;;;;;;;9.27;2.80;;;;;;;;;;5092180;28;20176;-81
2022/12/26 12:02:40;;;;;;;11.03;2.70;;;;;;;;;;5075552;28;20214;-80
2022/12/26 12:05:13;;;;;;;12.27;2.80;;;;;;;;;;5092346;28;20179;-81
2022/12/26 12:07:46;;;;;;;11.53;2.47;;;;;;;;;;5092650;28;20192;-80
2022/12/26 12:10:25;;;;;;;9.57;2.10;;;;;;;;;;5090786;28;20186;-81
2022/12/26 12:12:58;;;;;;;6.97;1.97;;;;;;;;;;5092772;28;20256;-88
2022/12/26 12:15:28;;;;;;;6.53;2.00;;;;;;;;;;5092425;28;20175;-88
2022/12/26 12:17:54;;;;;;;11.80;2.47;;;;;;;;;;5092434;28;20230;-88
2022/12/26 12:20:29;;;;;;;7.60;1.70;;;;;;;;;;5092223;28;20245;-89
2022/12/26 12:23:01;;;;;;;6.10;1.80;;;;;;;;;;5092253;28;20182;-89
2022/12/26 12:25:45;;;;;;;9.43;2.53;;;;;;;;;;5092341;28;20179;-89
2022/12/26 12:28:31;;;;;;;9.20;2.20;;;;;;;;;;5092283;28;20255;-89
2022/12/26 12:31:13;;;;;;;9.93;2.20;;;;;;;;;;5091728;28;20183;-81
2022/12/26 12:34:00;;;;;;;8.77;2.10;;;;;;;;;;5091793;28;20186;-82
2022/12/26 12:36:52;;;;;;;7.33;2.10;;;;;;;;;;5091617;28;20181;-82
2022/12/26 12:39:36;;;;;;;7.07;1.70;;;;;;;;;;5089823;28;20245;-82
2022/12/26 12:42:17;;;;;;;9.33;2.20;;;;;;;;;;5091826;28;20179;-82
2022/12/26 12:45:01;;;;;;;8.03;1.90;;;;;;;;;;5091735;28;20236;-82
2022/12/26 12:47:33;;;;;;;6.88;2.10;;;;;;;;;;5091267;28;20420;-81
2022/12/26 12:50:04;;;;;;;13.05;2.80;;;;;;;;;;5091529;28;20411;-81
2022/12/26 12:52:33;;;;;;;10.27;2.07;;;;;;;;;;5075999;28;20178;-81
2022/12/26 12:54:59;;;;;;;7.27;2.03;;;;;;;;;;5091903;28;20175;-81
2022/12/26 12:57:29;;;;;;;8.27;2.70;;;;;;;;;;5075311;28;20210;-81
2022/12/26 13:00:07;;;;;;;8.97;2.20;;;;;;;;;;5091462;28;20175;-81
2022/12/26 13:02:39;;;;;;;9.03;2.10;;;;;;;;;;5055063;28;20222;-81
2022/12/26 13:05:14;;;;;;;9.87;2.30;;;;;;;;;;5054840;28;20184;-82
2022/12/26 13:07:42;;;;;;;5.77;2.13;;;;;;;;;;5058016;28;20212;-82
2022/12/26 13:10:15;;;;;;;7.80;1.90;;;;;;;;;;5075478;28;20180;-81
2022/12/26 13:12:42;;;;;;;4.67;2.27;;;;;;;;;;5091217;28;20179;-81
2022/12/26 13:15:16;;;;;;;7.57;2.53;;;;;;;;;;5090625;28;20207;-81
2022/12/26 13:17:49;;;;;;;10.70;2.70;;;;;;;;;;5061128;28;20211;-81
2022/12/26 13:20:17;;;;;;;9.27;2.10;;;;;;;;;;5053804;28;20176;-88
2022/12/26 13:25:35;;;;;;;7.13;2.20;;;;;;;;;;5055659;28;20187;-89
2022/12/26 13:28:08;;;;;;;7.23;1.80;;;;;;;;;;5054115;28;20194;-89
2022/12/26 13:30:34;;;;;;;7.13;2.13;;;;;;;;;;5054446;28;20191;-90
2022/12/26 13:33:00;;;;;;;7.07;2.27;;;;;;;;;;5053960;28;20270;-89
2022/12/26 13:35:46;;;;;;;10.33;2.27;;;;;;;;;;5053907;28;20245;-81
2022/12/26 13:38:12;;;;;;;11.37;2.50;;;;;;;;;;5040231;28;20227;-82
2022/12/26 13:40:44;;;;;;;9.70;2.50;;;;;;;;;;5053752;28;20230;-81
2022/12/26 13:45:59;;;;;;;12.40;2.47;;;;;;;;;;5063731;28;20182;-81
2022/12/26 13:48:26;;;;;;;8.00;2.30;;;;;;;;;;5070727;28;20259;-81
2022/12/26 13:50:55;;;;;;;10.40;2.03;;;;;;;;;;5053926;28;20179;-81
2022/12/26 13:53:25;;;;;;;6.83;2.40;;;;;;;;;;5070237;28;20184;-82
2022/12/26 13:55:51;;;;;;;7.00;2.27;;;;;;;;;;5053429;28;20221;-82
2022/12/26 13:58:23;;;;;;;10.27;2.13;;;;;;;;;;5052499;28;20208;-82
2022/12/26 14:00:50;;;;;;;7.83;2.57;;;;;;;;;;5052440;28;20200;-82
2022/12/26 14:03:19;;;;;;;9.03;1.93;;;;;;;;;;5054184;28;20216;-82
2022/12/26 14:06:04;;;;;;;9.87;1.97;;;;;;;;;;5069032;28;20179;-82
2022/12/26 14:08:39;;;;;;;8.13;2.17;;;;;;;;;;5053040;28;20180;-82
2022/12/26 14:11:14;;;;;;;5.97;1.83;;;;;;;;;;5053095;28;20207;-82
2022/12/26 14:13:59;;;;;;;9.00;2.00;;;;;;;;;;5052867;28;20183;-82
2022/12/26 14:16:38;;;;;;;6.10;1.80;;;;;;;;;;5066258;28;20185;-82
2022/12/26 14:19:10;;;;;;;9.57;2.00;;;;;;;;;;5089648;28;20210;-82
2022/12/26 14:22:11;;;;;;;4.70;1.90;;;;;;;;;;5090045;28;20179;-82
2022/12/26 14:24:45;;;;;;;6.20;1.73;;;;;;;;;;5012317;28;20264;-82
2022/12/26 14:27:23;;;;;;;7.10;1.80;;;;;;;;;;5065071;28;20199;-86
2022/12/26 14:29:49;;;;;;;5.93;2.20;;;;;;;;;;5090283;28;20182;-86
2022/12/26 14:32:21;;;;;;;6.37;2.20;;;;;;;;;;5089201;28;20175;-86
2022/12/26 14:35:06;;;;;;;5.20;2.17;;;;;;;;;;5074086;28;20214;-86
2022/12/26 14:37:51;;;;;;;7.77;2.00;;;;;;;;;;5074109;28;20205;-86
2022/12/26 14:40:26;;;;;;;7.13;2.13;;;;;;;;;;5089882;28;20171;-86
2022/12/26 14:43:11;;;;;;;6.17;2.07;;;;;;;;;;5089773;28;20183;-81
2022/12/26 14:45:37;;;;;;;5.90;2.13;;;;;;;;;;5089105;28;20187;-81
2022/12/26 14:48:23;;;;;;;6.07;2.00;;;;;;;;;;5066874;28;20198;-81
2022/12/26 14:50:50;;;;;;;7.80;2.40;;;;;;;;;;5052720;28;20179;-81
2022/12/26 14:53:19;;;;;;;7.80;2.20;;;;;;;;;;5052864;28;20176;-82
2022/12/26 14:55:53;;;;;;;5.87;2.30;;;;;;;;;;5052844;28;20184;-81
2022/12/26 14:58:28;;;;;;;6.30;2.20;;;;;;;;;;5053841;28;20208;-81
2022/12/26 15:00:54;;;;;;;6.70;2.10;;;;;;;;;;5052580;28;20305;-81
2022/12/26 15:03:20;;;;;;;10.20;2.80;;;;;;;;;;5052643;28;20234;-81
2022/12/26 15:05:47;;;;;;;8.37;2.40;;;;;;;;;;5053647;28;20175;-81
2022/12/26 15:08:37;;;;;;;8.93;2.57;;;;;;;;;;5052503;28;20182;-82
2022/12/26 15:11:23;;;;;;;12.77;2.57;;;;;;;;;;5007584;28;20199;-81
2022/12/26 15:13:49;;;;;;;6.87;2.27;;;;;;;;;;5052429;28;20176;-81
2022/12/26 15:16:21;;;;;;;8.93;2.50;;;;;;;;;;5052691;28;20187;-82
2022/12/26 15:18:59;;;;;;;9.97;2.67;;;;;;;;;;5053586;28;20234;-82
2022/12/26 15:21:28;;;;;;;8.53;2.50;;;;;;;;;;5052937;28;20171;-82
2022/12/26 15:24:13;;;;;;;8.07;2.50;;;;;;;;;;5068160;28;20247;-82
2022/12/26 15:26:58;;;;;;;12.63;3.37;;;;;;;;;;5053147;28;20183;-82
2022/12/26 15:29:26;;;;;;;12.97;2.90;;;;;;;;;;5053537;28;20187;-82
2022/12/26 15:32:03;;;;;;;8.77;2.50;;;;;;;;;;5052491;28;20183;-82
2022/12/26 15:34:47;;;;;;;7.80;2.60;;;;;;;;;;5052682;28;20258;-82
2022/12/26 15:37:16;;;;;;;7.30;2.50;;;;;;;;;;5052975;28;20233;-82
2022/12/26 15:39:53;;;;;;;6.50;2.60;;;;;;;;;;5052741;28;20207;-82
2022/12/26 15:42:28;;;;;;;11.80;2.33;;;;;;;;;;5052245;28;20175;-82
2022/12/26 15:45:13;;;;;;;9.50;2.70;;;;;;;;;;5055427;28;20203;-82
2022/12/26 15:47:58;;;;;;;9.23;3.00;;;;;;;;;;5055881;28;20203;-82
2022/12/26 15:50:24;;;;;;;6.53;2.40;;;;;;;;;;5073748;28;20183;-81
2022/12/26 15:52:50;;;;;;;7.97;2.63;;;;;;;;;;5076953;28;20183;-81
2022/12/26 15:55:35;;;;;;;9.30;2.90;;;;;;;;;;5075676;28;20266;-81
2022/12/26 15:58:16;;;;;;;8.00;2.73;;;;;;;;;;5076781;28;20203;-81
2022/12/26 16:00:49;;;;;;;9.83;2.87;;;;;;;;;;5076024;28;20187;-81
2022/12/26 16:03:22;;;;;;;14.50;3.63;;;;;;;;;;5075214;28;20215;-81
2022/12/26 16:05:55;;;;;;;11.07;4.37;;;;;;;;;;5075819;28;20211;-89
2022/12/26 16:08:27;;;;;;;13.40;5.57;;;;;;;;;;5075695;28;20253;-90
2022/12/26 16:11:11;;;;;;;9.57;5.20;;;;;;;;;;5076102;28;20194;-89
2022/12/26 16:13:47;;;;;;;12.07;4.17;;;;;;;;;;5076735;28;20202;-88
2022/12/26 16:16:22;;;;;;;14.00;3.67;;;;;;;;;;5092371;28;20273;-88
2022/12/26 16:18:48;;;;;;;8.67;2.90;;;;;;;;;;5076632;28;20289;-89
2022/12/26 16:24:01;;;;;;;8.90;3.17;;;;;;;;;;5076634;28;20183;-82
2022/12/26 16:26:28;;;;;;;10.17;3.77;;;;;;;;;;5092025;28;20190;-82
2022/12/26 16:28:55;;;;;;;13.20;3.57;;;;;;;;;;5092065;28;20179;-82
2022/12/26 16:31:26;;;;;;;12.40;3.73;;;;;;;;;;5091986;28;20183;-82
2022/12/26 16:33:53;;;;;;;9.87;3.13;;;;;;;;;;5091918;28;20214;-82
2022/12/26 16:36:29;;;;;;;11.27;3.30;;;;;;;;;;5091870;28;20222;-82
2022/12/26 16:38:56;;;;;;;11.60;4.00;;;;;;;;;;5092202;28;20233;-82
2022/12/26 16:41:22;;;;;;;13.60;5.00;;;;;;;;;;5091782;28;20239;-82
2022/12/26 16:43:48;;;;;;;10.70;4.10;;;;;;;;;;5091822;28;20203;-82
2022/12/26 16:46:21;;;;;;;13.43;4.60;;;;;;;;;;5088028;28;20172;-82
2022/12/26 16:48:52;;;;;;;14.33;6.97;;;;;;;;;;5055214;28;20227;-81
2022/12/26 16:51:37;;;;;;;12.27;5.40;;;;;;;;;;5054740;28;20233;-82
2022/12/26 16:54:33;;;;;;;11.93;4.47;;;;;;;;;;5054678;28;20191;-82
2022/12/26 16:57:02;;;;;;;13.97;6.93;;;;;;;;;;5074056;28;20199;-82
2022/12/26 16:59:34;;;;;;;16.43;6.63;;;;;;;;;;5091742;28;20186;-82
2022/12/26 17:02:00;;;;;;;9.43;4.07;;;;;;;;;;5091495;28;20212;-82
2022/12/26 17:04:27;;;;;;;12.10;4.10;;;;;;;;;;5091512;28;20325;-82